createdAt,value
2022-08-12T00:00:18.247Z,23.54
2022-08-12T00:00:48.666Z,23.53
2022-08-12T00:01:19.085Z,23.51
2022-08-12T00:02:03.956Z,23.49
2022-08-12T00:02:29.734Z,23.49
2022-08-12T00:03:00.199Z,23.47
2022-08-12T00:03:30.694Z,23.46
2022-08-12T00:04:01.079Z,23.45
2022-08-12T00:04:31.498Z,23.45
2022-08-12T00:05:01.940Z,23.43
2022-08-12T00:05:32.368Z,23.42
2022-08-12T00:06:04.650Z,23.45
2022-08-12T00:06:35.600Z,23.44
2022-08-12T00:07:06.021Z,23.44
2022-08-12T00:07:36.440Z,23.43
2022-08-12T00:08:06.858Z,23.43
2022-08-12T00:08:37.297Z,23.38
2022-08-12T00:09:07.701Z,23.37
2022-08-12T00:09:38.131Z,23.34
2022-08-12T00:10:08.571Z,23.32
2022-08-12T00:10:38.992Z,23.33
2022-08-12T00:11:09.831Z,23.34
2022-08-12T00:11:43.132Z,23.35
2022-08-12T00:12:13.552Z,23.34
2022-08-12T00:12:43.970Z,23.33
2022-08-12T00:13:14.392Z,23.36
2022-08-12T00:13:44.813Z,23.36
2022-08-12T00:14:15.237Z,23.35
2022-08-12T00:14:45.654Z,23.39
2022-08-12T00:15:16.089Z,23.39
2022-08-12T00:15:46.513Z,23.36
2022-08-12T00:16:16.926Z,23.33
2022-08-12T00:16:47.347Z,23.33
2022-08-12T00:17:17.766Z,23.34
2022-08-12T00:17:48.185Z,23.33
2022-08-12T00:18:18.607Z,23.34
2022-08-12T00:18:49.029Z,23.36
2022-08-12T00:19:19.445Z,23.35
2022-08-12T00:19:52.932Z,23.36
2022-08-12T00:20:23.342Z,23.34
2022-08-12T00:20:58.666Z,23.31
2022-08-12T00:21:29.091Z,23.27
2022-08-12T00:21:59.513Z,23.28
2022-08-12T00:22:29.959Z,23.25
2022-08-12T00:23:00.436Z,23.27
2022-08-12T00:23:30.794Z,23.24
2022-08-12T00:24:01.218Z,23.24
2022-08-12T00:24:31.635Z,23.23
2022-08-12T00:25:02.056Z,23.22
2022-08-12T00:26:05.507Z,23.23
2022-08-12T00:26:22.542Z,23.25
2022-08-12T00:26:43.147Z,23.23
2022-08-12T00:27:13.569Z,23.26
2022-08-12T00:27:44.559Z,23.27
2022-08-12T00:28:14.979Z,23.25
2022-08-12T00:28:45.396Z,23.23
2022-08-12T00:29:15.818Z,23.18
2022-08-12T00:29:48.179Z,23.19
2022-08-12T00:30:18.659Z,23.23
2022-08-12T00:30:49.094Z,23.21
2022-08-12T00:31:19.519Z,23.23
2022-08-12T00:31:49.936Z,23.23
2022-08-12T00:32:35.238Z,23.27
2022-08-12T00:32:57.115Z,23.27
2022-08-12T00:33:35.751Z,23.28
2022-08-12T00:34:03.019Z,23.25
2022-08-12T00:34:35.776Z,23.23
2022-08-12T00:35:08.930Z,23.19
2022-08-12T00:35:39.792Z,23.22
2022-08-12T00:36:32.267Z,23.23
2022-08-12T00:36:46.181Z,23.22
2022-08-12T00:37:20.472Z,23.22
2022-08-12T00:37:50.964Z,23.21
2022-08-12T00:38:21.385Z,23.19
2022-08-12T00:38:51.803Z,23.18
2022-08-12T00:39:24.110Z,23.16
2022-08-12T00:39:54.611Z,23.13
2022-08-12T00:40:25.003Z,23.15
2022-08-12T00:40:55.422Z,23.12
2022-08-12T00:41:25.858Z,23.13
2022-08-12T00:41:56.280Z,23.14
2022-08-12T00:42:26.704Z,23.09
2022-08-12T00:42:57.126Z,23.07
2022-08-12T00:43:27.552Z,23.06
2022-08-12T00:43:57.975Z,23.04
2022-08-12T00:44:28.395Z,23.10
2022-08-12T00:44:58.817Z,23.11
2022-08-12T00:45:29.237Z,23.13
2022-08-12T00:45:59.656Z,23.11
2022-08-12T00:46:30.090Z,23.12
2022-08-12T00:47:00.512Z,23.07
2022-08-12T00:47:30.932Z,23.04
2022-08-12T00:48:01.352Z,23.04
2022-08-12T00:48:31.783Z,23.09
2022-08-12T00:49:02.203Z,23.07
2022-08-12T00:49:32.621Z,23.04
2022-08-12T00:50:03.041Z,23.04
2022-08-12T00:50:33.459Z,23.07
2022-08-12T00:51:03.877Z,23.05
2022-08-12T00:51:36.598Z,23.06
2022-08-12T00:52:07.017Z,23.04
2022-08-12T00:52:37.436Z,23.02
2022-08-12T00:53:07.854Z,22.97
2022-08-12T00:53:38.274Z,23.02
2022-08-12T00:54:08.690Z,23.04
2022-08-12T00:54:39.109Z,23.02
2022-08-12T00:55:09.528Z,23.02
2022-08-12T00:55:39.949Z,23.00
2022-08-12T00:56:11.260Z,22.98
2022-08-12T00:56:41.711Z,22.95
2022-08-12T00:57:12.132Z,23.04
2022-08-12T00:57:42.551Z,23.00
2022-08-12T00:58:12.974Z,22.99
2022-08-12T00:58:43.392Z,23.00
2022-08-12T00:59:13.818Z,22.98
2022-08-12T00:59:44.233Z,22.97
2022-08-12T01:00:14.659Z,22.95
2022-08-12T01:00:45.079Z,22.95
2022-08-12T01:01:15.563Z,22.96
2022-08-12T01:02:01.086Z,22.95
2022-08-12T01:02:21.304Z,22.95
2022-08-12T01:02:51.706Z,22.93
2022-08-12T01:03:22.122Z,22.94
2022-08-12T01:03:52.541Z,22.92
2022-08-12T01:04:24.804Z,22.86
2022-08-12T01:04:57.298Z,22.88
2022-08-12T01:05:27.715Z,22.88
2022-08-12T01:05:58.137Z,22.90
2022-08-12T01:06:28.556Z,22.88
2022-08-12T01:06:58.996Z,22.90
2022-08-12T01:07:29.415Z,22.93
2022-08-12T01:07:59.838Z,22.86
2022-08-12T01:08:30.258Z,22.80
2022-08-12T01:09:00.679Z,22.80
2022-08-12T01:09:31.099Z,22.80
2022-08-12T01:10:01.516Z,22.78
2022-08-12T01:10:33.060Z,22.76
2022-08-12T01:11:03.666Z,22.75
2022-08-12T01:11:34.100Z,22.77
2022-08-12T01:12:04.534Z,22.81
2022-08-12T01:12:34.977Z,22.84
2022-08-12T01:13:07.677Z,22.84
2022-08-12T01:13:40.706Z,22.82
2022-08-12T01:14:11.125Z,22.77
2022-08-12T01:14:41.543Z,22.75
2022-08-12T01:15:11.962Z,22.73
2022-08-12T01:15:42.390Z,22.73
2022-08-12T01:16:12.804Z,22.76
2022-08-12T01:16:43.224Z,22.74
2022-08-12T01:17:13.662Z,22.71
2022-08-12T01:17:44.082Z,22.70
2022-08-12T01:18:14.515Z,22.68
2022-08-12T01:18:44.925Z,22.71
2022-08-12T01:19:15.342Z,22.69
2022-08-12T01:19:50.664Z,22.70
2022-08-12T01:20:21.084Z,22.70
2022-08-12T01:20:51.505Z,22.70
2022-08-12T01:21:21.923Z,22.67
2022-08-12T01:21:52.354Z,22.68
2022-08-12T01:22:22.792Z,22.68
2022-08-12T01:22:53.212Z,22.64
2022-08-12T01:23:23.632Z,22.63
2022-08-12T01:23:54.052Z,22.72
2022-08-12T01:24:30.646Z,22.67
2022-08-12T01:24:59.794Z,22.63
2022-08-12T01:25:30.214Z,22.66
2022-08-12T01:26:00.632Z,22.64
2022-08-12T01:26:31.054Z,22.70
2022-08-12T01:27:01.571Z,22.73
2022-08-12T01:27:32.011Z,22.73
2022-08-12T01:28:02.427Z,22.75
2022-08-12T01:28:32.846Z,22.75
2022-08-12T01:29:03.269Z,22.79
2022-08-12T01:29:33.684Z,22.75
2022-08-12T01:30:04.108Z,22.73
2022-08-12T01:30:34.529Z,22.64
2022-08-12T01:31:04.955Z,22.63
2022-08-12T01:31:35.365Z,22.53
2022-08-12T01:32:05.787Z,22.46
2022-08-12T01:32:36.223Z,22.45
2022-08-12T01:33:06.642Z,22.49
2022-08-12T01:33:37.062Z,22.52
2022-08-12T01:34:35.471Z,22.56
2022-08-12T01:34:42.806Z,22.56
2022-08-12T01:35:13.223Z,22.55
2022-08-12T01:35:43.645Z,22.58
2022-08-12T01:36:18.964Z,22.63
2022-08-12T01:36:49.385Z,22.65
2022-08-12T01:37:19.805Z,22.68
2022-08-12T01:37:50.245Z,22.68
2022-08-12T01:38:20.667Z,22.63
2022-08-12T01:38:55.993Z,22.58
2022-08-12T01:39:26.432Z,22.49
2022-08-12T01:40:35.109Z,22.39
2022-08-12T01:40:36.612Z,22.40
2022-08-12T01:41:07.471Z,22.39
2022-08-12T01:41:37.894Z,22.35
2022-08-12T01:42:08.319Z,22.33
2022-08-12T01:42:38.866Z,22.22
2022-08-12T01:43:09.420Z,22.24
2022-08-12T01:43:39.842Z,22.28
2022-08-12T01:44:10.271Z,22.28
2022-08-12T01:44:40.690Z,22.26
2022-08-12T01:45:11.110Z,22.37
2022-08-12T01:45:43.488Z,22.47
2022-08-12T01:46:14.150Z,22.55
2022-08-12T01:46:44.569Z,22.40
2022-08-12T01:47:14.990Z,22.27
2022-08-12T01:47:45.408Z,22.21
2022-08-12T01:48:15.850Z,22.20
2022-08-12T01:48:46.271Z,22.23
2022-08-12T01:49:16.700Z,22.24
2022-08-12T01:49:51.945Z,22.20
2022-08-12T01:50:22.363Z,22.20
2022-08-12T01:50:52.781Z,22.24
2022-08-12T01:52:11.490Z,22.23
2022-08-12T01:52:20.684Z,22.26
2022-08-12T01:52:33.840Z,22.30
2022-08-12T01:53:04.260Z,22.26
2022-08-12T01:53:50.238Z,22.21
2022-08-12T01:54:10.019Z,22.29
2022-08-12T01:54:40.446Z,22.28
2022-08-12T01:55:10.863Z,22.19
2022-08-12T01:55:41.284Z,22.15
2022-08-12T01:56:11.700Z,22.18
2022-08-12T01:56:42.120Z,22.17
2022-08-12T01:57:12.540Z,22.18
2022-08-12T01:57:58.590Z,22.26
2022-08-12T01:58:18.281Z,22.38
2022-08-12T01:58:48.727Z,22.37
2022-08-12T01:59:20.861Z,22.30
2022-08-12T01:59:51.280Z,22.22
2022-08-12T02:00:21.696Z,22.20
2022-08-12T02:00:57.106Z,22.15
2022-08-12T02:01:27.538Z,22.11
2022-08-12T02:01:57.970Z,22.08
2022-08-12T02:02:28.363Z,22.05
2022-08-12T02:02:58.785Z,22.05
2022-08-12T02:03:29.205Z,22.13
2022-08-12T02:03:59.647Z,22.11
2022-08-12T02:04:30.068Z,22.07
2022-08-12T02:05:00.490Z,21.99
2022-08-12T02:05:33.196Z,21.96
2022-08-12T02:06:03.692Z,21.97
2022-08-12T02:06:34.113Z,21.97
2022-08-12T02:07:04.536Z,22.08
2022-08-12T02:07:34.951Z,22.07
2022-08-12T02:08:05.373Z,22.09
2022-08-12T02:08:35.791Z,22.16
2022-08-12T02:09:06.232Z,22.18
2022-08-12T02:09:36.653Z,22.14
2022-08-12T02:10:07.073Z,22.13
2022-08-12T02:10:49.505Z,22.16
2022-08-12T02:11:12.818Z,22.20
2022-08-12T02:11:43.237Z,22.15
2022-08-12T02:12:13.659Z,22.13
2022-08-12T02:12:44.080Z,22.19
2022-08-12T02:13:41.774Z,22.15
2022-08-12T02:13:54.113Z,22.10
2022-08-12T02:14:24.550Z,22.08
2022-08-12T02:14:54.974Z,22.07
2022-08-12T02:15:25.394Z,22.05
2022-08-12T02:15:55.817Z,22.03
2022-08-12T02:16:26.234Z,22.06
2022-08-12T02:16:56.653Z,22.04
2022-08-12T02:17:55.069Z,21.99
2022-08-12T02:18:02.394Z,22.01
2022-08-12T02:18:32.813Z,21.99
2022-08-12T02:19:03.257Z,21.98
2022-08-12T02:19:38.570Z,21.98
2022-08-12T02:20:08.990Z,21.95
2022-08-12T02:20:52.504Z,21.95
2022-08-12T02:21:14.730Z,21.92
2022-08-12T02:21:45.151Z,21.96
2022-08-12T02:22:15.571Z,21.98
2022-08-12T02:22:45.992Z,21.99
2022-08-12T02:23:16.410Z,22.00
2022-08-12T02:23:46.831Z,21.98
2022-08-12T02:24:17.249Z,21.96
2022-08-12T02:24:47.688Z,21.94
2022-08-12T02:25:18.106Z,21.98
2022-08-12T02:25:48.529Z,21.95
2022-08-12T02:26:18.945Z,21.96
2022-08-12T02:26:49.369Z,22.03
2022-08-12T02:27:19.871Z,21.96
2022-08-12T02:27:50.288Z,21.95
2022-08-12T02:28:20.706Z,21.87
2022-08-12T02:28:51.124Z,21.85
2022-08-12T02:29:21.543Z,21.84
2022-08-12T02:29:51.993Z,21.82
2022-08-12T02:30:22.422Z,21.82
2022-08-12T02:30:52.851Z,21.82
2022-08-12T02:31:23.269Z,21.87
2022-08-12T02:31:53.695Z,21.88
2022-08-12T02:32:24.112Z,21.86
2022-08-12T02:32:54.532Z,21.81
2022-08-12T02:33:26.582Z,21.75
2022-08-12T02:33:57.015Z,21.79
2022-08-12T02:34:27.427Z,21.79
2022-08-12T02:34:57.871Z,21.77
2022-08-12T02:35:28.284Z,21.74
2022-08-12T02:35:58.703Z,21.75
2022-08-12T02:36:29.162Z,21.78
2022-08-12T02:37:03.703Z,21.80
2022-08-12T02:37:34.339Z,21.75
2022-08-12T02:38:04.761Z,21.73
2022-08-12T02:38:35.179Z,21.72
2022-08-12T02:39:05.599Z,21.75
2022-08-12T02:39:36.062Z,21.75
2022-08-12T02:40:06.473Z,21.74
2022-08-12T02:40:41.794Z,21.75
2022-08-12T02:41:12.215Z,21.74
2022-08-12T02:41:42.633Z,21.73
2022-08-12T02:42:13.055Z,21.76
2022-08-12T02:42:43.474Z,21.73
2022-08-12T02:43:13.891Z,21.71
2022-08-12T02:43:44.317Z,21.76
2022-08-12T02:44:14.740Z,21.69
2022-08-12T02:44:45.170Z,21.67
2022-08-12T02:45:15.611Z,21.72
2022-08-12T02:45:46.030Z,21.71
2022-08-12T02:46:16.450Z,21.67
2022-08-12T02:46:46.871Z,21.65
2022-08-12T02:47:18.330Z,21.67
2022-08-12T02:48:00.177Z,21.73
2022-08-12T02:48:27.931Z,21.70
2022-08-12T02:48:58.354Z,21.71
2022-08-12T02:49:28.772Z,21.71
2022-08-12T02:49:59.190Z,21.66
2022-08-12T02:50:29.624Z,21.62
2022-08-12T02:51:00.048Z,21.60
2022-08-12T02:51:30.468Z,21.60
2022-08-12T02:52:00.891Z,21.65
2022-08-12T02:52:31.414Z,21.67
2022-08-12T02:53:01.817Z,21.64
2022-08-12T02:53:32.236Z,21.61
2022-08-12T02:54:04.977Z,21.65
2022-08-12T02:54:36.205Z,21.70
2022-08-12T02:55:06.639Z,21.68
2022-08-12T02:55:37.073Z,21.66
2022-08-12T02:56:07.497Z,21.68
2022-08-12T02:56:38.183Z,21.66
2022-08-12T02:57:08.643Z,21.66
2022-08-12T02:57:39.093Z,21.68
2022-08-12T02:58:12.722Z,21.70
2022-08-12T02:58:45.386Z,21.75
2022-08-12T02:59:15.864Z,21.77
2022-08-12T02:59:46.287Z,21.76
2022-08-12T03:00:16.707Z,21.74
2022-08-12T03:00:47.229Z,21.69
2022-08-12T03:01:17.870Z,21.75
2022-08-12T03:01:48.538Z,21.76
2022-08-12T03:02:19.047Z,21.71
2022-08-12T03:02:49.469Z,21.70
2022-08-12T03:03:19.892Z,21.67
2022-08-12T03:03:50.310Z,21.74
2022-08-12T03:04:21.237Z,21.71
2022-08-12T03:04:51.608Z,21.68
2022-08-12T03:05:22.027Z,21.70
2022-08-12T03:05:55.471Z,21.73
2022-08-12T03:06:25.890Z,21.71
2022-08-12T03:06:56.313Z,21.74
2022-08-12T03:07:46.654Z,21.75
2022-08-12T03:08:02.093Z,21.66
2022-08-12T03:08:33.278Z,21.62
2022-08-12T03:09:03.728Z,21.59
2022-08-12T03:09:42.186Z,21.55
2022-08-12T03:10:16.050Z,21.54
2022-08-12T03:10:46.476Z,21.60
2022-08-12T03:11:18.754Z,21.57
2022-08-12T03:11:49.815Z,21.55
2022-08-12T03:12:20.561Z,21.55
2022-08-12T03:12:52.373Z,21.55
2022-08-12T03:13:22.832Z,21.52
2022-08-12T03:13:53.248Z,21.47
2022-08-12T03:14:23.669Z,21.54
2022-08-12T03:14:54.090Z,21.57
2022-08-12T03:15:24.505Z,21.54
2022-08-12T03:15:54.928Z,21.55
2022-08-12T03:16:25.375Z,21.61
2022-08-12T03:16:55.793Z,21.58
2022-08-12T03:17:26.213Z,21.56
2022-08-12T03:18:24.869Z,21.61
2022-08-12T03:18:31.965Z,21.59
2022-08-12T03:19:03.024Z,21.54
2022-08-12T03:19:33.445Z,21.52
2022-08-12T03:20:09.766Z,21.52
2022-08-12T03:20:39.188Z,21.49
2022-08-12T03:21:09.605Z,21.48
2022-08-12T03:21:55.313Z,21.49
2022-08-12T03:22:15.362Z,21.52
2022-08-12T03:22:45.781Z,21.51
2022-08-12T03:23:17.292Z,21.47
2022-08-12T03:23:51.523Z,21.46
2022-08-12T03:24:21.942Z,21.44
2022-08-12T03:24:52.363Z,21.41
2022-08-12T03:25:22.782Z,21.43
2022-08-12T03:25:53.203Z,21.40
2022-08-12T03:26:23.621Z,21.40
2022-08-12T03:26:54.061Z,21.47
2022-08-12T03:27:24.479Z,21.50
2022-08-12T03:27:54.902Z,21.53
2022-08-12T03:28:25.321Z,21.64
2022-08-12T03:28:55.740Z,21.67
2022-08-12T03:29:26.160Z,21.61
2022-08-12T03:29:56.579Z,21.52
2022-08-12T03:30:27.001Z,21.54
2022-08-12T03:30:57.424Z,21.54
2022-08-12T03:31:27.844Z,21.52
2022-08-12T03:31:58.291Z,21.49
2022-08-12T03:32:36.221Z,21.49
2022-08-12T03:33:04.030Z,21.46
2022-08-12T03:33:34.449Z,21.45
2022-08-12T03:34:04.867Z,21.45
2022-08-12T03:34:35.288Z,21.48
2022-08-12T03:35:05.710Z,21.47
2022-08-12T03:35:41.153Z,21.45
2022-08-12T03:36:11.448Z,21.34
2022-08-12T03:36:41.874Z,21.29
2022-08-12T03:37:12.310Z,21.28
2022-08-12T03:37:42.731Z,21.27
2022-08-12T03:38:13.152Z,21.27
2022-08-12T03:38:43.574Z,21.29
2022-08-12T03:39:14.103Z,21.28
2022-08-12T03:39:44.545Z,21.21
2022-08-12T03:40:15.031Z,21.18
2022-08-12T03:40:45.430Z,21.26
2022-08-12T03:41:16.678Z,21.35
2022-08-12T03:41:47.103Z,21.41
2022-08-12T03:42:17.538Z,21.52
2022-08-12T03:42:47.968Z,21.59
2022-08-12T03:43:19.349Z,21.59
2022-08-12T03:43:49.768Z,21.65
2022-08-12T03:44:20.190Z,21.60
2022-08-12T03:44:55.513Z,21.59
2022-08-12T03:45:25.933Z,21.56
2022-08-12T03:45:56.742Z,21.55
2022-08-12T03:46:27.196Z,21.57
2022-08-12T03:46:57.617Z,21.62
2022-08-12T03:47:28.053Z,21.62
2022-08-12T03:47:58.473Z,21.53
2022-08-12T03:48:28.896Z,21.48
2022-08-12T03:48:59.317Z,21.46
2022-08-12T03:49:29.734Z,21.41
2022-08-12T03:50:00.766Z,21.40
2022-08-12T03:50:31.185Z,21.48
2022-08-12T03:51:01.610Z,21.58
2022-08-12T03:51:32.029Z,21.65
2022-08-12T03:52:02.449Z,21.74
2022-08-12T03:52:32.882Z,21.71
2022-08-12T03:53:03.305Z,21.69
2022-08-12T03:53:33.721Z,21.61
2022-08-12T03:54:04.141Z,21.50
2022-08-12T03:54:35.790Z,21.45
2022-08-12T03:55:07.618Z,21.41
2022-08-12T03:55:38.054Z,21.36
2022-08-12T03:56:08.475Z,21.38
2022-08-12T03:56:38.895Z,21.35
2022-08-12T03:57:09.313Z,21.31
2022-08-12T03:57:39.756Z,21.36
2022-08-12T03:58:12.636Z,21.41
2022-08-12T03:58:43.057Z,21.37
2022-08-12T03:59:13.476Z,21.39
2022-08-12T03:59:43.897Z,21.33
2022-08-12T04:00:24.285Z,21.33
2022-08-12T04:00:49.715Z,21.37
2022-08-12T04:01:20.165Z,21.41
2022-08-12T04:01:50.573Z,21.39
2022-08-12T04:02:20.990Z,21.38
2022-08-12T04:02:51.549Z,21.36
2022-08-12T04:03:21.966Z,21.30
2022-08-12T04:03:52.389Z,21.35
2022-08-12T04:04:22.806Z,21.43
2022-08-12T04:04:53.225Z,21.40
2022-08-12T04:05:24.025Z,21.38
2022-08-12T04:05:59.348Z,21.37
2022-08-12T04:06:34.277Z,21.36
2022-08-12T04:07:05.089Z,21.34
2022-08-12T04:07:35.510Z,21.31
2022-08-12T04:08:05.946Z,21.27
2022-08-12T04:08:36.371Z,21.23
2022-08-12T04:09:15.774Z,21.21
2022-08-12T04:09:42.114Z,21.21
2022-08-12T04:10:12.540Z,21.15
2022-08-12T04:10:42.967Z,21.12
2022-08-12T04:11:13.388Z,21.13
2022-08-12T04:11:47.092Z,21.14
2022-08-12T04:12:17.645Z,21.21
2022-08-12T04:12:48.079Z,21.21
2022-08-12T04:13:18.516Z,21.24
2022-08-12T04:13:48.945Z,21.27
2022-08-12T04:14:19.362Z,21.28
2022-08-12T04:14:49.781Z,21.30
2022-08-12T04:15:20.201Z,21.35
2022-08-12T04:15:50.623Z,21.37
2022-08-12T04:16:21.041Z,21.39
2022-08-12T04:16:51.461Z,21.39
2022-08-12T04:17:21.882Z,21.36
2022-08-12T04:18:06.647Z,21.39
2022-08-12T04:18:27.642Z,21.39
2022-08-12T04:18:58.062Z,21.40
2022-08-12T04:19:28.485Z,21.40
2022-08-12T04:19:58.908Z,21.40
2022-08-12T04:20:29.329Z,21.40
2022-08-12T04:20:59.748Z,21.42
2022-08-12T04:21:30.170Z,21.46
2022-08-12T04:22:02.209Z,21.46
2022-08-12T04:22:33.749Z,21.44
2022-08-12T04:23:04.170Z,21.47
2022-08-12T04:23:35.608Z,21.45
2022-08-12T04:24:06.026Z,21.44
2022-08-12T04:24:36.678Z,21.43
2022-08-12T04:25:08.317Z,21.41
2022-08-12T04:25:38.744Z,21.40
2022-08-12T04:26:09.167Z,21.32
2022-08-12T04:26:39.596Z,21.25
2022-08-12T04:27:10.016Z,21.23
2022-08-12T04:27:40.438Z,21.26
2022-08-12T04:28:13.377Z,21.25
2022-08-12T04:28:44.181Z,21.32
2022-08-12T04:29:14.594Z,21.37
2022-08-12T04:30:16.649Z,21.41
2022-08-12T04:30:32.216Z,21.44
2022-08-12T04:30:55.658Z,21.42
2022-08-12T04:31:26.083Z,21.42
2022-08-12T04:31:56.505Z,21.43
2022-08-12T04:32:26.938Z,21.49
2022-08-12T04:32:57.348Z,21.52
2022-08-12T04:33:27.777Z,21.54
2022-08-12T04:33:58.283Z,21.54
2022-08-12T04:34:28.702Z,21.49
2022-08-12T04:34:59.178Z,21.50
2022-08-12T04:35:29.543Z,21.54
2022-08-12T04:35:59.963Z,21.55
2022-08-12T04:36:30.386Z,21.58
2022-08-12T04:37:00.818Z,21.56
2022-08-12T04:37:59.044Z,21.60
2022-08-12T04:38:06.559Z,21.60
2022-08-12T04:38:36.979Z,21.61
2022-08-12T04:39:07.432Z,21.60
2022-08-12T04:39:37.893Z,21.60
2022-08-12T04:40:08.272Z,21.56
2022-08-12T04:40:38.693Z,21.55
2022-08-12T04:41:09.111Z,21.53
2022-08-12T04:41:39.531Z,21.58
2022-08-12T04:42:14.853Z,21.61
2022-08-12T04:42:45.277Z,21.62
2022-08-12T04:44:00.003Z,21.58
2022-08-12T04:44:00.963Z,21.62
2022-08-12T04:44:26.356Z,21.58
2022-08-12T04:44:56.778Z,21.60
2022-08-12T04:45:27.199Z,21.55
2022-08-12T04:45:57.617Z,21.53
2022-08-12T04:46:34.329Z,21.58
2022-08-12T04:47:03.361Z,21.61
2022-08-12T04:47:33.782Z,21.64
2022-08-12T04:48:04.201Z,21.63
2022-08-12T04:48:34.624Z,21.61
2022-08-12T04:49:05.702Z,21.67
2022-08-12T04:49:36.137Z,21.68
2022-08-12T04:50:34.228Z,21.67
2022-08-12T04:50:41.883Z,21.65
2022-08-12T04:51:12.304Z,21.65
2022-08-12T04:51:42.727Z,21.68
2022-08-12T04:52:18.047Z,21.73
2022-08-12T04:52:48.465Z,21.71
2022-08-12T04:53:18.884Z,21.71
2022-08-12T04:53:49.308Z,21.74
2022-08-12T04:54:19.728Z,21.68
2022-08-12T04:54:53.619Z,21.57
2022-08-12T04:55:24.037Z,21.52
2022-08-12T04:55:54.459Z,21.51
2022-08-12T04:56:24.881Z,21.48
2022-08-12T04:57:04.164Z,21.48
2022-08-12T04:57:30.623Z,21.58
2022-08-12T04:58:01.046Z,21.69
2022-08-12T04:58:31.469Z,21.71
2022-08-12T04:59:01.885Z,21.72
2022-08-12T04:59:32.311Z,21.75
2022-08-12T05:00:07.657Z,21.81
2022-08-12T05:00:38.079Z,21.76
2022-08-12T05:01:08.496Z,21.74
2022-08-12T05:01:38.915Z,21.65
2022-08-12T05:02:09.593Z,21.74
2022-08-12T05:02:44.717Z,21.86
2022-08-12T05:03:15.118Z,21.93
2022-08-12T05:03:46.531Z,21.97
2022-08-12T05:04:17.801Z,21.89
2022-08-12T05:04:48.229Z,21.84
2022-08-12T05:05:18.675Z,21.87
2022-08-12T05:05:49.095Z,21.91
2022-08-12T05:06:26.817Z,21.92
2022-08-12T05:06:54.838Z,21.86
2022-08-12T05:07:25.261Z,21.86
2022-08-12T05:07:55.680Z,21.91
2022-08-12T05:08:26.099Z,21.96
2022-08-12T05:08:56.525Z,22.03
2022-08-12T05:09:26.943Z,22.03
2022-08-12T05:10:02.682Z,22.06
2022-08-12T05:10:35.750Z,22.09
2022-08-12T05:11:06.543Z,22.01
2022-08-12T05:11:36.974Z,21.93
2022-08-12T05:12:12.286Z,21.91
2022-08-12T05:12:42.919Z,21.88
2022-08-12T05:13:13.414Z,21.84
2022-08-12T05:13:43.835Z,21.84
2022-08-12T05:14:14.257Z,21.96
2022-08-12T05:14:45.257Z,22.17
2022-08-12T05:15:19.310Z,22.50
2022-08-12T05:16:05.287Z,22.95
2022-08-12T05:16:32.606Z,23.26
2022-08-12T05:17:01.678Z,23.31
2022-08-12T05:17:36.941Z,23.16
2022-08-12T05:18:19.020Z,22.84
2022-08-12T05:18:45.799Z,22.52
2022-08-12T05:19:19.798Z,22.40
2022-08-12T05:19:53.024Z,22.32
2022-08-12T05:20:27.608Z,22.28
2022-08-12T05:20:59.909Z,22.20
2022-08-12T05:21:30.330Z,22.14
2022-08-12T05:22:00.751Z,22.10
2022-08-12T05:22:31.213Z,22.10
2022-08-12T05:23:12.707Z,22.20
2022-08-12T05:23:41.811Z,22.30
2022-08-12T05:24:12.234Z,22.34
2022-08-12T05:24:42.653Z,22.30
2022-08-12T05:25:13.078Z,22.30
2022-08-12T05:25:43.646Z,22.27
2022-08-12T05:26:14.014Z,22.24
2022-08-12T05:26:44.437Z,22.22
2022-08-12T05:27:14.857Z,22.23
2022-08-12T05:27:59.200Z,22.34
2022-08-12T05:28:20.600Z,22.45
2022-08-12T05:28:51.029Z,22.52
2022-08-12T05:30:07.007Z,22.56
2022-08-12T05:30:07.353Z,22.55
2022-08-12T05:30:33.461Z,22.47
2022-08-12T05:31:03.877Z,22.38
2022-08-12T05:31:45.477Z,22.37
2022-08-12T05:32:09.647Z,22.45
2022-08-12T05:32:40.162Z,22.53
2022-08-12T05:33:10.625Z,22.59
2022-08-12T05:33:41.109Z,22.64
2022-08-12T05:34:11.525Z,22.63
2022-08-12T05:34:41.924Z,22.60
2022-08-12T05:35:12.344Z,22.62
2022-08-12T05:35:42.778Z,22.64
2022-08-12T05:36:13.189Z,22.69
2022-08-12T05:36:43.625Z,22.71
2022-08-12T05:37:14.049Z,22.73
2022-08-12T05:37:44.470Z,22.70
2022-08-12T05:38:14.899Z,22.71
2022-08-12T05:38:45.314Z,22.78
2022-08-12T05:39:15.771Z,22.72
2022-08-12T05:39:46.224Z,22.67
2022-08-12T05:40:16.622Z,22.71
2022-08-12T05:40:47.046Z,22.75
2022-08-12T05:41:17.476Z,22.80
2022-08-12T05:41:47.918Z,22.88
2022-08-12T05:42:18.342Z,22.96
2022-08-12T05:42:53.666Z,23.00
2022-08-12T05:43:24.084Z,23.01
2022-08-12T05:43:54.507Z,23.03
2022-08-12T05:44:24.925Z,23.05
2022-08-12T05:44:55.347Z,23.10
2022-08-12T05:45:25.771Z,23.06
2022-08-12T05:45:56.192Z,23.00
2022-08-12T05:46:26.614Z,22.92
2022-08-12T05:46:57.049Z,22.88
2022-08-12T05:47:42.803Z,22.95
2022-08-12T05:48:02.848Z,23.02
2022-08-12T05:48:33.214Z,23.04
2022-08-12T05:49:03.635Z,23.01
2022-08-12T05:49:34.055Z,22.99
2022-08-12T05:50:04.482Z,22.95
2022-08-12T05:50:34.918Z,22.98
2022-08-12T05:51:05.335Z,23.01
2022-08-12T05:51:41.039Z,23.06
2022-08-12T05:52:11.093Z,23.06
2022-08-12T05:52:41.782Z,23.01
2022-08-12T05:53:12.372Z,22.97
2022-08-12T05:53:42.794Z,22.93
2022-08-12T05:54:13.223Z,22.95
2022-08-12T05:54:57.067Z,23.05
2022-08-12T05:55:18.971Z,23.16
2022-08-12T05:55:49.394Z,23.22
2022-08-12T05:56:19.817Z,23.24
2022-08-12T05:56:50.237Z,23.29
2022-08-12T05:57:20.670Z,23.38
2022-08-12T05:57:51.092Z,23.45
2022-08-12T05:58:21.512Z,23.49
2022-08-12T05:58:51.935Z,23.53
2022-08-12T05:59:22.353Z,23.59
2022-08-12T05:59:52.779Z,23.63
2022-08-12T06:00:23.198Z,23.64
2022-08-12T06:00:53.619Z,23.64
2022-08-12T06:02:10.550Z,23.70
2022-08-12T06:02:10.685Z,23.65
2022-08-12T06:02:34.699Z,23.73
2022-08-12T06:03:05.164Z,23.69
2022-08-12T06:03:35.579Z,23.68
2022-08-12T06:04:05.988Z,23.64
2022-08-12T06:04:36.416Z,23.73
2022-08-12T06:05:06.839Z,23.83
2022-08-12T06:05:43.001Z,23.91
2022-08-12T06:06:12.586Z,24.00
2022-08-12T06:06:43.011Z,24.02
2022-08-12T06:07:48.785Z,24.12
2022-08-12T06:07:58.951Z,24.07
2022-08-12T06:08:24.106Z,24.16
2022-08-12T06:08:54.530Z,24.21
2022-08-12T06:09:24.958Z,24.25
2022-08-12T06:09:55.381Z,24.23
2022-08-12T06:10:32.535Z,24.21
2022-08-12T06:11:01.126Z,24.27
2022-08-12T06:11:31.549Z,24.32
2022-08-12T06:12:05.748Z,24.37
2022-08-12T06:12:36.974Z,24.42
2022-08-12T06:13:07.397Z,24.45
2022-08-12T06:13:53.141Z,24.46
2022-08-12T06:14:13.141Z,24.47
2022-08-12T06:14:46.992Z,24.48
2022-08-12T06:15:17.412Z,24.51
2022-08-12T06:15:47.833Z,24.53
2022-08-12T06:16:18.587Z,24.59
2022-08-12T06:16:49.007Z,24.62
2022-08-12T06:17:19.428Z,24.64
2022-08-12T06:17:49.862Z,24.69
2022-08-12T06:18:20.281Z,24.69
2022-08-12T06:18:50.705Z,24.70
2022-08-12T06:19:21.124Z,24.67
2022-08-12T06:20:27.624Z,24.65
2022-08-12T06:20:30.204Z,24.65
2022-08-12T06:21:02.606Z,24.65
2022-08-12T06:21:33.043Z,24.66
2022-08-12T06:22:03.477Z,24.72
2022-08-12T06:22:33.903Z,24.78
2022-08-12T06:23:04.324Z,24.82
2022-08-12T06:23:38.072Z,24.85
2022-08-12T06:24:10.070Z,24.81
2022-08-12T06:24:40.492Z,24.76
2022-08-12T06:25:10.912Z,24.76
2022-08-12T06:25:46.236Z,24.80
2022-08-12T06:26:16.665Z,24.79
2022-08-12T06:26:47.079Z,24.77
2022-08-12T06:27:17.502Z,24.79
2022-08-12T06:28:07.639Z,24.81
2022-08-12T06:28:23.268Z,24.85
2022-08-12T06:28:53.683Z,24.89
2022-08-12T06:30:06.819Z,24.94
2022-08-12T06:30:07.113Z,24.93
2022-08-12T06:30:38.020Z,24.95
2022-08-12T06:31:26.667Z,24.96
2022-08-12T06:31:44.927Z,25.00
2022-08-12T06:32:15.346Z,25.00
2022-08-12T06:32:51.701Z,25.05
2022-08-12T06:33:22.749Z,25.10
2022-08-12T06:33:57.678Z,25.14
2022-08-12T06:35:23.274Z,25.24
2022-08-12T06:35:24.246Z,25.18
2022-08-12T06:35:47.507Z,25.29
2022-08-12T06:36:16.130Z,25.29
2022-08-12T06:36:51.451Z,25.29
2022-08-12T06:37:21.967Z,25.34
2022-08-12T06:37:57.037Z,25.40
2022-08-12T06:38:27.946Z,25.44
2022-08-12T06:38:58.359Z,25.53
2022-08-12T06:39:28.828Z,25.57
2022-08-12T06:40:03.541Z,25.61
2022-08-12T06:40:34.457Z,25.65
2022-08-12T06:41:04.880Z,25.70
2022-08-12T06:41:35.302Z,25.70
2022-08-12T06:42:31.710Z,25.68